Hawleyville, Connecticut
Current Conditions -  °F | °C
As of 7:53 AM on Thursday 23 Oct 2014 (Local Time) from KDXR Reporting Station
Light Rain Light Rain  
Wind Chill: 44°   Ceiling: 1600
Heat Index: 48°   Visibility: 9mi
Dew Point: 43°   Wind: 9mph
Humidity: 83%   Direction: 340°NNW
Pressure: 29.72"   Gusts: NA
Location:  41.43°N, 73.36°W
Report Text: KDXR 231153Z 34008KT 9SM -RA BKN016 OVC023 09/06 A2972 RMK AO2 SLP063 P0006 60013 70065 T00890061 10106 20089 55000
Loading
Personal Weather Stations






























Interactive Weather Map
Tropical Storm Tracking
New forecast layout! Learn more

10-Day Weather Forecast

Advertisements
Track Severe Weather on mobile